sensor_id;sensor_type;location;lat;lon;timestamp;P1;durP1;ratioP1;P2;durP2;ratioP2
74957;SDS011;63516;42.624;26.276;2022-09-16T00:00:12;9.15;;;4.22;;
74957;SDS011;63516;42.624;26.276;2022-09-16T00:02:38;9.55;;;4.57;;
74957;SDS011;63516;42.624;26.276;2022-09-16T00:05:03;6.70;;;4.22;;
74957;SDS011;63516;42.624;26.276;2022-09-16T00:07:29;6.68;;;4.28;;
74957;SDS011;63516;42.624;26.276;2022-09-16T00:09:55;5.57;;;4.28;;
74957;SDS011;63516;42.624;26.276;2022-09-16T00:12:20;8.20;;;4.50;;
74957;SDS011;63516;42.624;26.276;2022-09-16T00:14:46;9.20;;;4.32;;
74957;SDS011;63516;42.624;26.276;2022-09-16T00:17:12;10.50;;;4.60;;
74957;SDS011;63516;42.624;26.276;2022-09-16T00:19:37;10.02;;;4.22;;
74957;SDS011;63516;42.624;26.276;2022-09-16T00:22:03;9.20;;;4.88;;
74957;SDS011;63516;42.624;26.276;2022-09-16T00:24:28;12.52;;;4.45;;
74957;SDS011;63516;42.624;26.276;2022-09-16T00:26:54;17.52;;;5.20;;
74957;SDS011;63516;42.624;26.276;2022-09-16T00:29:19;9.57;;;4.28;;
74957;SDS011;63516;42.624;26.276;2022-09-16T00:31:45;8.93;;;4.35;;
74957;SDS011;63516;42.624;26.276;2022-09-16T00:34:10;8.38;;;4.68;;
74957;SDS011;63516;42.624;26.276;2022-09-16T00:36:35;9.90;;;4.70;;
74957;SDS011;63516;42.624;26.276;2022-09-16T00:39:01;10.82;;;4.25;;
74957;SDS011;63516;42.624;26.276;2022-09-16T00:41:28;7.38;;;4.22;;
74957;SDS011;63516;42.624;26.276;2022-09-16T00:46:34;12.75;;;5.05;;
74957;SDS011;63516;42.624;26.276;2022-09-16T00:49:09;8.45;;;4.65;;
74957;SDS011;63516;42.624;26.276;2022-09-16T00:51:41;9.55;;;4.90;;
74957;SDS011;63516;42.624;26.276;2022-09-16T00:54:09;13.55;;;4.70;;
74957;SDS011;63516;42.624;26.276;2022-09-16T00:56:36;9.82;;;4.28;;
74957;SDS011;63516;42.624;26.276;2022-09-16T00:59:08;10.27;;;4.47;;
74957;SDS011;63516;42.624;26.276;2022-09-16T01:01:35;7.68;;;4.55;;
74957;SDS011;63516;42.624;26.276;2022-09-16T01:04:04;8.45;;;4.50;;
74957;SDS011;63516;42.624;26.276;2022-09-16T01:06:35;7.82;;;4.55;;
74957;SDS011;63516;42.624;26.276;2022-09-16T01:09:04;9.75;;;5.00;;
74957;SDS011;63516;42.624;26.276;2022-09-16T01:11:29;22.35;;;6.00;;
74957;SDS011;63516;42.624;26.276;2022-09-16T01:13:55;20.92;;;5.85;;
74957;SDS011;63516;42.624;26.276;2022-09-16T01:16:42;11.63;;;4.90;;
74957;SDS011;63516;42.624;26.276;2022-09-16T01:22:12;6.80;;;4.10;;
74957;SDS011;63516;42.624;26.276;2022-09-16T01:24:58;5.70;;;4.28;;
74957;SDS011;63516;42.624;26.276;2022-09-16T01:37:50;5.90;;;4.60;;
74957;SDS011;63516;42.624;26.276;2022-09-16T01:46:00;11.07;;;4.53;;
74957;SDS011;63516;42.624;26.276;2022-09-16T01:51:01;9.52;;;4.63;;
74957;SDS011;63516;42.624;26.276;2022-09-16T01:56:52;9.93;;;5.00;;
74957;SDS011;63516;42.624;26.276;2022-09-16T01:59:33;7.18;;;4.47;;
74957;SDS011;63516;42.624;26.276;2022-09-16T02:02:20;8.55;;;4.20;;
74957;SDS011;63516;42.624;26.276;2022-09-16T02:04:55;9.48;;;4.65;;
74957;SDS011;63516;42.624;26.276;2022-09-16T02:07:28;6.38;;;4.05;;
74957;SDS011;63516;42.624;26.276;2022-09-16T02:10:07;12.32;;;4.35;;
74957;SDS011;63516;42.624;26.276;2022-09-16T02:12:40;13.13;;;4.68;;
74957;SDS011;63516;42.624;26.276;2022-09-16T02:15:09;11.68;;;4.70;;
74957;SDS011;63516;42.624;26.276;2022-09-16T02:17:43;14.30;;;4.57;;
74957;SDS011;63516;42.624;26.276;2022-09-16T02:20:13;12.00;;;4.72;;
74957;SDS011;63516;42.624;26.276;2022-09-16T02:22:44;11.60;;;4.68;;
74957;SDS011;63516;42.624;26.276;2022-09-16T02:25:13;10.20;;;5.25;;
74957;SDS011;63516;42.624;26.276;2022-09-16T02:27:42;12.30;;;4.90;;
74957;SDS011;63516;42.624;26.276;2022-09-16T02:30:11;12.65;;;4.90;;
74957;SDS011;63516;42.624;26.276;2022-09-16T02:32:42;13.68;;;4.60;;
74957;SDS011;63516;42.624;26.276;2022-09-16T02:35:10;10.20;;;4.38;;
74957;SDS011;63516;42.624;26.276;2022-09-16T02:37:41;7.10;;;4.57;;
74957;SDS011;63516;42.624;26.276;2022-09-16T02:40:21;7.53;;;4.00;;
74957;SDS011;63516;42.624;26.276;2022-09-16T02:42:53;8.52;;;4.45;;
74957;SDS011;63516;42.624;26.276;2022-09-16T02:45:22;7.85;;;3.92;;
74957;SDS011;63516;42.624;26.276;2022-09-16T02:48:03;11.98;;;4.13;;
74957;SDS011;63516;42.624;26.276;2022-09-16T02:51:05;12.73;;;4.35;;
74957;SDS011;63516;42.624;26.276;2022-09-16T02:53:59;8.43;;;4.15;;
74957;SDS011;63516;42.624;26.276;2022-09-16T02:56:37;5.60;;;3.63;;
74957;SDS011;63516;42.624;26.276;2022-09-16T02:59:05;9.57;;;4.55;;
74957;SDS011;63516;42.624;26.276;2022-09-16T03:01:36;9.60;;;3.95;;
74957;SDS011;63516;42.624;26.276;2022-09-16T03:04:05;12.52;;;4.60;;
74957;SDS011;63516;42.624;26.276;2022-09-16T03:06:32;7.07;;;4.18;;
74957;SDS011;63516;42.624;26.276;2022-09-16T03:09:00;14.45;;;4.18;;
74957;SDS011;63516;42.624;26.276;2022-09-16T03:19:53;8.57;;;4.93;;
74957;SDS011;63516;42.624;26.276;2022-09-16T03:28:58;10.15;;;3.83;;
74957;SDS011;63516;42.624;26.276;2022-09-16T03:31:46;9.38;;;4.10;;
74957;SDS011;63516;42.624;26.276;2022-09-16T03:34:25;10.70;;;3.90;;
74957;SDS011;63516;42.624;26.276;2022-09-16T03:36:58;6.80;;;3.92;;
74957;SDS011;63516;42.624;26.276;2022-09-16T03:39:27;9.15;;;4.45;;
74957;SDS011;63516;42.624;26.276;2022-09-16T03:41:54;11.65;;;3.78;;
74957;SDS011;63516;42.624;26.276;2022-09-16T03:44:35;9.50;;;3.78;;
74957;SDS011;63516;42.624;26.276;2022-09-16T03:49:28;8.73;;;4.03;;
74957;SDS011;63516;42.624;26.276;2022-09-16T03:54:20;17.83;;;5.75;;
74957;SDS011;63516;42.624;26.276;2022-09-16T03:56:45;12.68;;;3.58;;
74957;SDS011;63516;42.624;26.276;2022-09-16T03:59:11;15.90;;;4.75;;
74957;SDS011;63516;42.624;26.276;2022-09-16T04:01:36;23.58;;;4.82;;
74957;SDS011;63516;42.624;26.276;2022-09-16T04:04:02;25.50;;;5.40;;
74957;SDS011;63516;42.624;26.276;2022-09-16T04:06:28;18.95;;;4.95;;
74957;SDS011;63516;42.624;26.276;2022-09-16T04:08:54;15.63;;;4.40;;
74957;SDS011;63516;42.624;26.276;2022-09-16T04:11:21;9.13;;;3.85;;
74957;SDS011;63516;42.624;26.276;2022-09-16T04:13:46;14.38;;;4.22;;
74957;SDS011;63516;42.624;26.276;2022-09-16T04:16:17;18.38;;;3.97;;
74957;SDS011;63516;42.624;26.276;2022-09-16T04:18:44;15.18;;;4.05;;
74957;SDS011;63516;42.624;26.276;2022-09-16T04:21:09;10.63;;;4.53;;
74957;SDS011;63516;42.624;26.276;2022-09-16T04:23:35;23.15;;;4.60;;
74957;SDS011;63516;42.624;26.276;2022-09-16T04:26:01;13.10;;;4.30;;
74957;SDS011;63516;42.624;26.276;2022-09-16T04:28:27;17.13;;;5.30;;
74957;SDS011;63516;42.624;26.276;2022-09-16T04:31:01;14.38;;;4.57;;
74957;SDS011;63516;42.624;26.276;2022-09-16T04:33:28;29.08;;;5.30;;
74957;SDS011;63516;42.624;26.276;2022-09-16T04:36:05;55.40;;;6.10;;
74957;SDS011;63516;42.624;26.276;2022-09-16T04:38:34;11.68;;;4.10;;
74957;SDS011;63516;42.624;26.276;2022-09-16T04:41:04;24.38;;;5.32;;
74957;SDS011;63516;42.624;26.276;2022-09-16T04:43:34;16.25;;;4.15;;
74957;SDS011;63516;42.624;26.276;2022-09-16T04:46:00;29.33;;;4.93;;
74957;SDS011;63516;42.624;26.276;2022-09-16T04:48:26;38.97;;;6.35;;
74957;SDS011;63516;42.624;26.276;2022-09-16T04:50:52;14.93;;;4.60;;
74957;SDS011;63516;42.624;26.276;2022-09-16T04:53:18;13.73;;;4.85;;
74957;SDS011;63516;42.624;26.276;2022-09-16T04:55:45;9.10;;;4.03;;
74957;SDS011;63516;42.624;26.276;2022-09-16T04:58:12;15.90;;;5.28;;
74957;SDS011;63516;42.624;26.276;2022-09-16T05:00:38;19.95;;;5.28;;
74957;SDS011;63516;42.624;26.276;2022-09-16T05:03:04;17.55;;;4.60;;
74957;SDS011;63516;42.624;26.276;2022-09-16T05:05:30;14.05;;;4.15;;
74957;SDS011;63516;42.624;26.276;2022-09-16T05:07:56;10.93;;;4.20;;
74957;SDS011;63516;42.624;26.276;2022-09-16T05:10:21;10.52;;;4.50;;
74957;SDS011;63516;42.624;26.276;2022-09-16T05:12:53;21.45;;;4.53;;
74957;SDS011;63516;42.624;26.276;2022-09-16T05:15:19;52.83;;;5.38;;
74957;SDS011;63516;42.624;26.276;2022-09-16T05:17:44;27.10;;;4.53;;
74957;SDS011;63516;42.624;26.276;2022-09-16T05:20:10;23.98;;;4.45;;
74957;SDS011;63516;42.624;26.276;2022-09-16T05:22:36;21.23;;;3.72;;
74957;SDS011;63516;42.624;26.276;2022-09-16T05:25:03;17.20;;;3.63;;
74957;SDS011;63516;42.624;26.276;2022-09-16T05:27:29;10.68;;;3.45;;
74957;SDS011;63516;42.624;26.276;2022-09-16T05:29:55;14.50;;;4.38;;
74957;SDS011;63516;42.624;26.276;2022-09-16T05:32:21;13.13;;;3.35;;
74957;SDS011;63516;42.624;26.276;2022-09-16T05:34:46;29.73;;;5.75;;
74957;SDS011;63516;42.624;26.276;2022-09-16T05:37:14;9.68;;;3.08;;
74957;SDS011;63516;42.624;26.276;2022-09-16T05:39:40;9.40;;;3.50;;
74957;SDS011;63516;42.624;26.276;2022-09-16T05:42:06;22.70;;;4.32;;
74957;SDS011;63516;42.624;26.276;2022-09-16T05:44:31;13.27;;;3.70;;
74957;SDS011;63516;42.624;26.276;2022-09-16T05:46:57;17.40;;;4.00;;
74957;SDS011;63516;42.624;26.276;2022-09-16T05:49:22;15.00;;;3.45;;
74957;SDS011;63516;42.624;26.276;2022-09-16T05:51:48;16.17;;;3.60;;
74957;SDS011;63516;42.624;26.276;2022-09-16T05:54:15;8.95;;;3.17;;
74957;SDS011;63516;42.624;26.276;2022-09-16T05:56:42;13.77;;;3.17;;
74957;SDS011;63516;42.624;26.276;2022-09-16T05:59:09;8.50;;;3.30;;
74957;SDS011;63516;42.624;26.276;2022-09-16T06:01:35;10.68;;;3.30;;
74957;SDS011;63516;42.624;26.276;2022-09-16T06:04:03;8.75;;;3.30;;
74957;SDS011;63516;42.624;26.276;2022-09-16T06:06:36;12.82;;;3.30;;
74957;SDS011;63516;42.624;26.276;2022-09-16T06:09:09;6.68;;;2.97;;
74957;SDS011;63516;42.624;26.276;2022-09-16T06:11:43;12.15;;;3.25;;
74957;SDS011;63516;42.624;26.276;2022-09-16T06:14:11;9.93;;;3.30;;
74957;SDS011;63516;42.624;26.276;2022-09-16T06:16:37;10.10;;;3.30;;
74957;SDS011;63516;42.624;26.276;2022-09-16T06:19:04;26.52;;;4.38;;
74957;SDS011;63516;42.624;26.276;2022-09-16T06:21:34;11.98;;;3.70;;
74957;SDS011;63516;42.624;26.276;2022-09-16T06:24:01;13.32;;;3.95;;
74957;SDS011;63516;42.624;26.276;2022-09-16T06:26:28;15.15;;;3.75;;
74957;SDS011;63516;42.624;26.276;2022-09-16T06:28:54;23.33;;;3.88;;
74957;SDS011;63516;42.624;26.276;2022-09-16T06:31:23;12.90;;;3.63;;
74957;SDS011;63516;42.624;26.276;2022-09-16T06:33:51;27.33;;;4.30;;
74957;SDS011;63516;42.624;26.276;2022-09-16T06:38:53;12.15;;;4.15;;
74957;SDS011;63516;42.624;26.276;2022-09-16T06:41:19;26.40;;;5.00;;
74957;SDS011;63516;42.624;26.276;2022-09-16T06:43:45;11.18;;;3.63;;
74957;SDS011;63516;42.624;26.276;2022-09-16T06:46:12;8.43;;;3.63;;
74957;SDS011;63516;42.624;26.276;2022-09-16T06:48:44;19.77;;;4.00;;
74957;SDS011;63516;42.624;26.276;2022-09-16T06:51:11;42.60;;;6.80;;
74957;SDS011;63516;42.624;26.276;2022-09-16T06:53:39;13.98;;;3.90;;
74957;SDS011;63516;42.624;26.276;2022-09-16T06:56:06;16.80;;;4.22;;
74957;SDS011;63516;42.624;26.276;2022-09-16T06:58:36;51.50;;;5.15;;
74957;SDS011;63516;42.624;26.276;2022-09-16T07:01:14;29.00;;;4.25;;
74957;SDS011;63516;42.624;26.276;2022-09-16T07:06:08;10.50;;;5.38;;
74957;SDS011;63516;42.624;26.276;2022-09-16T07:08:36;13.88;;;5.60;;
74957;SDS011;63516;42.624;26.276;2022-09-16T07:11:20;12.45;;;4.50;;
74957;SDS011;63516;42.624;26.276;2022-09-16T07:13:48;8.90;;;3.80;;
74957;SDS011;63516;42.624;26.276;2022-09-16T07:16:15;11.63;;;3.80;;
74957;SDS011;63516;42.624;26.276;2022-09-16T07:18:42;34.22;;;4.90;;
74957;SDS011;63516;42.624;26.276;2022-09-16T07:21:10;14.13;;;4.50;;
74957;SDS011;63516;42.624;26.276;2022-09-16T07:23:36;25.90;;;5.40;;
74957;SDS011;63516;42.624;26.276;2022-09-16T07:26:16;25.02;;;5.30;;
74957;SDS011;63516;42.624;26.276;2022-09-16T07:28:44;21.60;;;6.63;;
74957;SDS011;63516;42.624;26.276;2022-09-16T07:31:21;15.23;;;3.90;;
74957;SDS011;63516;42.624;26.276;2022-09-16T07:36:16;19.92;;;4.60;;
74957;SDS011;63516;42.624;26.276;2022-09-16T07:38:43;12.57;;;4.43;;
74957;SDS011;63516;42.624;26.276;2022-09-16T07:41:13;30.00;;;9.95;;
74957;SDS011;63516;42.624;26.276;2022-09-16T07:43:40;14.23;;;6.35;;
74957;SDS011;63516;42.624;26.276;2022-09-16T07:46:07;23.58;;;5.28;;
74957;SDS011;63516;42.624;26.276;2022-09-16T07:48:35;17.95;;;4.70;;
74957;SDS011;63516;42.624;26.276;2022-09-16T07:51:02;11.52;;;3.50;;
74957;SDS011;63516;42.624;26.276;2022-09-16T07:53:30;7.50;;;3.38;;
74957;SDS011;63516;42.624;26.276;2022-09-16T07:56:00;16.15;;;4.22;;
74957;SDS011;63516;42.624;26.276;2022-09-16T07:58:27;11.43;;;3.38;;
74957;SDS011;63516;42.624;26.276;2022-09-16T08:00:53;20.80;;;3.67;;
74957;SDS011;63516;42.624;26.276;2022-09-16T08:03:18;18.05;;;3.40;;
74957;SDS011;63516;42.624;26.276;2022-09-16T08:05:43;13.43;;;3.45;;
74957;SDS011;63516;42.624;26.276;2022-09-16T08:08:09;10.27;;;3.47;;
74957;SDS011;63516;42.624;26.276;2022-09-16T08:10:35;6.70;;;2.97;;
74957;SDS011;63516;42.624;26.276;2022-09-16T08:13:01;5.50;;;2.75;;
74957;SDS011;63516;42.624;26.276;2022-09-16T08:15:31;8.00;;;3.10;;
74957;SDS011;63516;42.624;26.276;2022-09-16T08:17:56;8.32;;;2.88;;
74957;SDS011;63516;42.624;26.276;2022-09-16T08:20:22;12.20;;;3.05;;
74957;SDS011;63516;42.624;26.276;2022-09-16T08:22:48;10.80;;;2.60;;
74957;SDS011;63516;42.624;26.276;2022-09-16T08:25:14;10.77;;;3.20;;
74957;SDS011;63516;42.624;26.276;2022-09-16T08:27:39;6.75;;;2.80;;
74957;SDS011;63516;42.624;26.276;2022-09-16T08:30:05;8.13;;;2.90;;
74957;SDS011;63516;42.624;26.276;2022-09-16T08:32:30;6.10;;;2.50;;
74957;SDS011;63516;42.624;26.276;2022-09-16T08:34:56;6.50;;;2.50;;
74957;SDS011;63516;42.624;26.276;2022-09-16T08:37:21;14.25;;;3.17;;
74957;SDS011;63516;42.624;26.276;2022-09-16T08:39:47;6.75;;;2.78;;
74957;SDS011;63516;42.624;26.276;2022-09-16T08:45:06;8.05;;;3.03;;
74957;SDS011;63516;42.624;26.276;2022-09-16T08:50:52;6.65;;;2.72;;
74957;SDS011;63516;42.624;26.276;2022-09-16T08:53:41;19.45;;;3.58;;
74957;SDS011;63516;42.624;26.276;2022-09-16T08:56:18;13.88;;;2.83;;
74957;SDS011;63516;42.624;26.276;2022-09-16T08:58:46;8.15;;;2.35;;
74957;SDS011;63516;42.624;26.276;2022-09-16T09:03:46;7.18;;;2.50;;
74957;SDS011;63516;42.624;26.276;2022-09-16T09:08:58;11.68;;;2.60;;
74957;SDS011;63516;42.624;26.276;2022-09-16T09:11:48;9.18;;;2.47;;
74957;SDS011;63516;42.624;26.276;2022-09-16T09:17:03;13.52;;;2.80;;
74957;SDS011;63516;42.624;26.276;2022-09-16T09:25:31;11.23;;;2.65;;
74957;SDS011;63516;42.624;26.276;2022-09-16T09:31:06;18.80;;;2.90;;
74957;SDS011;63516;42.624;26.276;2022-09-16T09:36:34;9.40;;;2.83;;
74957;SDS011;63516;42.624;26.276;2022-09-16T09:42:11;7.15;;;2.22;;
74957;SDS011;63516;42.624;26.276;2022-09-16T09:44:59;10.43;;;3.03;;
74957;SDS011;63516;42.624;26.276;2022-09-16T09:47:41;9.45;;;2.40;;
74957;SDS011;63516;42.624;26.276;2022-09-16T09:55:36;10.57;;;2.40;;
74957;SDS011;63516;42.624;26.276;2022-09-16T10:00:46;9.90;;;2.25;;
74957;SDS011;63516;42.624;26.276;2022-09-16T10:05:39;8.73;;;2.63;;
74957;SDS011;63516;42.624;26.276;2022-09-16T10:10:50;12.93;;;3.15;;
74957;SDS011;63516;42.624;26.276;2022-09-16T10:13:18;10.32;;;2.63;;
74957;SDS011;63516;42.624;26.276;2022-09-16T10:15:44;10.75;;;2.80;;
74957;SDS011;63516;42.624;26.276;2022-09-16T10:18:11;10.73;;;2.30;;
74957;SDS011;63516;42.624;26.276;2022-09-16T10:21:10;23.05;;;5.30;;
74957;SDS011;63516;42.624;26.276;2022-09-16T10:23:38;10.32;;;2.88;;
74957;SDS011;63516;42.624;26.276;2022-09-16T10:28:57;11.27;;;2.35;;
74957;SDS011;63516;42.624;26.276;2022-09-16T10:31:43;13.48;;;2.33;;
74957;SDS011;63516;42.624;26.276;2022-09-16T10:39:38;33.70;;;3.05;;
74957;SDS011;63516;42.624;26.276;2022-09-16T10:42:19;13.65;;;2.58;;
74957;SDS011;63516;42.624;26.276;2022-09-16T10:44:46;16.60;;;2.60;;
74957;SDS011;63516;42.624;26.276;2022-09-16T10:47:19;15.30;;;2.78;;
74957;SDS011;63516;42.624;26.276;2022-09-16T10:49:51;13.20;;;2.70;;
74957;SDS011;63516;42.624;26.276;2022-09-16T10:52:21;15.88;;;2.65;;
74957;SDS011;63516;42.624;26.276;2022-09-16T10:54:48;16.02;;;2.70;;
74957;SDS011;63516;42.624;26.276;2022-09-16T11:00:01;21.75;;;3.20;;
74957;SDS011;63516;42.624;26.276;2022-09-16T11:02:40;13.77;;;2.78;;
74957;SDS011;63516;42.624;26.276;2022-09-16T11:08:42;17.88;;;2.72;;
74957;SDS011;63516;42.624;26.276;2022-09-16T11:16:15;13.48;;;2.60;;
74957;SDS011;63516;42.624;26.276;2022-09-16T11:18:49;13.63;;;2.53;;
74957;SDS011;63516;42.624;26.276;2022-09-16T11:27:26;16.92;;;2.80;;
74957;SDS011;63516;42.624;26.276;2022-09-16T11:30:20;17.15;;;5.38;;
74957;SDS011;63516;42.624;26.276;2022-09-16T11:38:55;22.58;;;2.90;;
74957;SDS011;63516;42.624;26.276;2022-09-16T11:57:57;16.55;;;2.72;;
74957;SDS011;63516;42.624;26.276;2022-09-16T12:00:26;13.80;;;2.95;;
74957;SDS011;63516;42.624;26.276;2022-09-16T12:03:00;19.00;;;3.20;;
74957;SDS011;63516;42.624;26.276;2022-09-16T12:05:47;20.92;;;3.08;;
74957;SDS011;63516;42.624;26.276;2022-09-16T12:13:35;13.07;;;2.67;;
74957;SDS011;63516;42.624;26.276;2022-09-16T12:16:05;17.35;;;2.85;;
74957;SDS011;63516;42.624;26.276;2022-09-16T12:18:35;16.65;;;2.85;;
74957;SDS011;63516;42.624;26.276;2022-09-16T12:21:13;19.75;;;3.47;;
74957;SDS011;63516;42.624;26.276;2022-09-16T12:23:47;16.70;;;3.10;;
74957;SDS011;63516;42.624;26.276;2022-09-16T12:26:17;17.30;;;2.88;;
74957;SDS011;63516;42.624;26.276;2022-09-16T12:31:33;18.08;;;2.88;;
74957;SDS011;63516;42.624;26.276;2022-09-16T12:36:38;23.13;;;3.10;;
74957;SDS011;63516;42.624;26.276;2022-09-16T12:39:08;25.67;;;3.50;;
74957;SDS011;63516;42.624;26.276;2022-09-16T12:52:32;20.52;;;2.85;;
74957;SDS011;63516;42.624;26.276;2022-09-16T12:57:44;15.75;;;2.80;;
74957;SDS011;63516;42.624;26.276;2022-09-16T13:00:16;19.77;;;2.72;;
74957;SDS011;63516;42.624;26.276;2022-09-16T13:05:24;13.32;;;2.83;;
74957;SDS011;63516;42.624;26.276;2022-09-16T13:07:53;17.85;;;2.90;;
74957;SDS011;63516;42.624;26.276;2022-09-16T13:12:53;26.85;;;3.58;;
74957;SDS011;63516;42.624;26.276;2022-09-16T13:15:22;14.85;;;2.80;;
74957;SDS011;63516;42.624;26.276;2022-09-16T13:17:50;18.08;;;2.95;;
74957;SDS011;63516;42.624;26.276;2022-09-16T13:20:25;19.73;;;3.13;;
74957;SDS011;63516;42.624;26.276;2022-09-16T13:25:58;25.25;;;3.40;;
74957;SDS011;63516;42.624;26.276;2022-09-16T13:28:34;15.35;;;3.10;;
74957;SDS011;63516;42.624;26.276;2022-09-16T13:31:45;18.38;;;2.55;;
74957;SDS011;63516;42.624;26.276;2022-09-16T13:38:55;27.40;;;2.78;;
74957;SDS011;63516;42.624;26.276;2022-09-16T13:41:38;19.23;;;2.90;;
74957;SDS011;63516;42.624;26.276;2022-09-16T13:44:26;19.60;;;2.53;;
74957;SDS011;63516;42.624;26.276;2022-09-16T13:49:33;18.50;;;2.75;;
74957;SDS011;63516;42.624;26.276;2022-09-16T13:54:53;14.55;;;2.50;;
74957;SDS011;63516;42.624;26.276;2022-09-16T14:02:47;33.50;;;3.85;;
74957;SDS011;63516;42.624;26.276;2022-09-16T14:05:34;44.83;;;4.00;;
74957;SDS011;63516;42.624;26.276;2022-09-16T14:13:44;23.05;;;3.40;;
74957;SDS011;63516;42.624;26.276;2022-09-16T14:16:17;20.90;;;3.03;;
74957;SDS011;63516;42.624;26.276;2022-09-16T14:18:59;36.58;;;4.15;;
74957;SDS011;63516;42.624;26.276;2022-09-16T14:21:30;24.63;;;3.50;;
74957;SDS011;63516;42.624;26.276;2022-09-16T14:24:15;32.78;;;3.42;;
74957;SDS011;63516;42.624;26.276;2022-09-16T14:29:55;18.60;;;3.10;;
74957;SDS011;63516;42.624;26.276;2022-09-16T14:32:22;24.10;;;3.22;;
74957;SDS011;63516;42.624;26.276;2022-09-16T14:34:53;54.45;;;5.30;;
74957;SDS011;63516;42.624;26.276;2022-09-16T14:37:20;20.15;;;2.88;;
74957;SDS011;63516;42.624;26.276;2022-09-16T14:39:48;34.15;;;3.50;;
74957;SDS011;63516;42.624;26.276;2022-09-16T14:42:18;33.30;;;2.97;;
74957;SDS011;63516;42.624;26.276;2022-09-16T14:44:46;28.30;;;3.13;;
74957;SDS011;63516;42.624;26.276;2022-09-16T14:47:20;40.30;;;3.22;;
74957;SDS011;63516;42.624;26.276;2022-09-16T14:49:54;16.90;;;2.60;;
74957;SDS011;63516;42.624;26.276;2022-09-16T14:52:32;17.67;;;2.47;;
74957;SDS011;63516;42.624;26.276;2022-09-16T14:54:59;22.63;;;2.30;;
74957;SDS011;63516;42.624;26.276;2022-09-16T14:57:28;24.88;;;2.95;;
74957;SDS011;63516;42.624;26.276;2022-09-16T15:00:01;17.27;;;2.78;;
74957;SDS011;63516;42.624;26.276;2022-09-16T15:02:40;20.48;;;2.47;;
74957;SDS011;63516;42.624;26.276;2022-09-16T15:07:40;33.75;;;2.80;;
74957;SDS011;63516;42.624;26.276;2022-09-16T15:10:13;15.15;;;2.17;;
74957;SDS011;63516;42.624;26.276;2022-09-16T15:12:48;19.17;;;2.22;;
74957;SDS011;63516;42.624;26.276;2022-09-16T15:20:25;22.05;;;2.97;;
74957;SDS011;63516;42.624;26.276;2022-09-16T15:22:52;21.95;;;2.95;;
74957;SDS011;63516;42.624;26.276;2022-09-16T15:25:22;16.02;;;3.03;;
74957;SDS011;63516;42.624;26.276;2022-09-16T15:28:02;14.90;;;2.15;;
74957;SDS011;63516;42.624;26.276;2022-09-16T15:30:46;40.53;;;3.20;;
74957;SDS011;63516;42.624;26.276;2022-09-16T15:33:23;30.42;;;2.92;;
74957;SDS011;63516;42.624;26.276;2022-09-16T15:35:50;21.40;;;2.92;;
74957;SDS011;63516;42.624;26.276;2022-09-16T15:38:20;15.50;;;2.45;;
74957;SDS011;63516;42.624;26.276;2022-09-16T15:40:47;23.83;;;2.80;;
74957;SDS011;63516;42.624;26.276;2022-09-16T15:43:34;16.08;;;2.42;;
74957;SDS011;63516;42.624;26.276;2022-09-16T15:46:05;17.50;;;2.30;;
74957;SDS011;63516;42.624;26.276;2022-09-16T15:48:43;16.77;;;2.40;;
74957;SDS011;63516;42.624;26.276;2022-09-16T15:53:49;28.05;;;3.30;;
74957;SDS011;63516;42.624;26.276;2022-09-16T15:59:03;16.27;;;2.35;;
74957;SDS011;63516;42.624;26.276;2022-09-16T16:04:05;13.02;;;2.58;;
74957;SDS011;63516;42.624;26.276;2022-09-16T16:06:53;10.93;;;2.05;;
74957;SDS011;63516;42.624;26.276;2022-09-16T16:11:58;20.20;;;2.85;;
74957;SDS011;63516;42.624;26.276;2022-09-16T16:14:26;20.20;;;2.53;;
74957;SDS011;63516;42.624;26.276;2022-09-16T16:17:01;16.15;;;2.45;;
74957;SDS011;63516;42.624;26.276;2022-09-16T16:19:29;17.35;;;2.42;;
74957;SDS011;63516;42.624;26.276;2022-09-16T16:21:55;19.60;;;2.80;;
74957;SDS011;63516;42.624;26.276;2022-09-16T16:24:21;12.25;;;2.00;;
74957;SDS011;63516;42.624;26.276;2022-09-16T16:26:48;12.13;;;2.80;;
74957;SDS011;63516;42.624;26.276;2022-09-16T16:29:14;19.73;;;2.40;;
74957;SDS011;63516;42.624;26.276;2022-09-16T16:31:40;15.07;;;2.25;;
74957;SDS011;63516;42.624;26.276;2022-09-16T16:34:47;12.70;;;2.65;;
74957;SDS011;63516;42.624;26.276;2022-09-16T16:37:18;13.70;;;2.30;;
74957;SDS011;63516;42.624;26.276;2022-09-16T16:39:44;16.33;;;1.85;;
74957;SDS011;63516;42.624;26.276;2022-09-16T16:42:10;16.85;;;3.15;;
74957;SDS011;63516;42.624;26.276;2022-09-16T16:44:37;14.73;;;3.20;;
74957;SDS011;63516;42.624;26.276;2022-09-16T16:47:02;16.50;;;4.07;;
74957;SDS011;63516;42.624;26.276;2022-09-16T16:49:28;12.07;;;3.00;;
74957;SDS011;63516;42.624;26.276;2022-09-16T16:51:54;17.67;;;7.32;;
74957;SDS011;63516;42.624;26.276;2022-09-16T16:54:22;22.98;;;10.68;;
74957;SDS011;63516;42.624;26.276;2022-09-16T16:56:48;26.55;;;9.32;;
74957;SDS011;63516;42.624;26.276;2022-09-16T16:59:14;21.10;;;7.20;;
74957;SDS011;63516;42.624;26.276;2022-09-16T17:01:41;40.40;;;21.02;;
74957;SDS011;63516;42.624;26.276;2022-09-16T17:04:08;33.85;;;15.23;;
74957;SDS011;63516;42.624;26.276;2022-09-16T17:06:34;32.17;;;13.43;;
74957;SDS011;63516;42.624;26.276;2022-09-16T17:09:00;52.13;;;24.20;;
74957;SDS011;63516;42.624;26.276;2022-09-16T17:11:27;17.77;;;6.20;;
74957;SDS011;63516;42.624;26.276;2022-09-16T17:13:56;17.70;;;4.43;;
74957;SDS011;63516;42.624;26.276;2022-09-16T17:16:23;16.23;;;5.28;;
74957;SDS011;63516;42.624;26.276;2022-09-16T17:18:50;25.35;;;6.00;;
74957;SDS011;63516;42.624;26.276;2022-09-16T17:21:20;33.55;;;6.13;;
74957;SDS011;63516;42.624;26.276;2022-09-16T17:23:47;15.68;;;3.42;;
74957;SDS011;63516;42.624;26.276;2022-09-16T17:26:13;20.83;;;2.90;;
74957;SDS011;63516;42.624;26.276;2022-09-16T17:28:39;12.57;;;2.95;;
74957;SDS011;63516;42.624;26.276;2022-09-16T17:31:08;19.63;;;2.47;;
74957;SDS011;63516;42.624;26.276;2022-09-16T17:33:34;10.15;;;1.80;;
74957;SDS011;63516;42.624;26.276;2022-09-16T17:36:01;25.50;;;2.55;;
74957;SDS011;63516;42.624;26.276;2022-09-16T17:38:28;17.25;;;2.83;;
74957;SDS011;63516;42.624;26.276;2022-09-16T17:41:05;18.58;;;2.55;;
74957;SDS011;63516;42.624;26.276;2022-09-16T17:43:35;26.23;;;2.75;;
74957;SDS011;63516;42.624;26.276;2022-09-16T17:46:02;11.63;;;2.22;;
74957;SDS011;63516;42.624;26.276;2022-09-16T17:48:29;17.48;;;2.30;;
74957;SDS011;63516;42.624;26.276;2022-09-16T17:50:56;11.63;;;2.30;;
74957;SDS011;63516;42.624;26.276;2022-09-16T17:53:22;18.92;;;2.75;;
74957;SDS011;63516;42.624;26.276;2022-09-16T17:55:48;20.13;;;2.92;;
74957;SDS011;63516;42.624;26.276;2022-09-16T17:58:14;15.10;;;2.53;;
74957;SDS011;63516;42.624;26.276;2022-09-16T18:00:41;13.88;;;2.33;;
74957;SDS011;63516;42.624;26.276;2022-09-16T18:03:07;18.20;;;2.78;;
74957;SDS011;63516;42.624;26.276;2022-09-16T18:05:34;12.45;;;2.25;;
74957;SDS011;63516;42.624;26.276;2022-09-16T18:08:00;16.38;;;2.38;;
74957;SDS011;63516;42.624;26.276;2022-09-16T18:10:27;18.85;;;2.80;;
74957;SDS011;63516;42.624;26.276;2022-09-16T18:12:53;17.13;;;2.08;;
74957;SDS011;63516;42.624;26.276;2022-09-16T18:15:19;9.77;;;2.60;;
74957;SDS011;63516;42.624;26.276;2022-09-16T18:17:44;15.63;;;2.42;;
74957;SDS011;63516;42.624;26.276;2022-09-16T18:20:10;19.42;;;2.30;;